Am Qui, Tennessee
Current Conditions -  °F | °C
As of 12:53 AM on Wednesday 26 Nov 2014 (Local Time) from KBNA Reporting Station
Few Clouds Few Clouds  
Wind Chill: 35°   Ceiling: Unl
Heat Index: 35°   Visibility: 10mi
Dew Point: 27°   Wind: 3mph
Humidity: 72%   Direction: 20°NNE
Pressure: 30.13"   Gusts: NA
Location:  36.2555°N, 86.6973°W
Report Text: KBNA 260653Z 02003KT 10SM FEW150 02/M03 A3013 RMK AO2 SLP204 T00171028
Loading
Personal Weather Stations






























Interactive Weather Map New forecast layout! Learn more

10-Day Weather Forecast

Advertisements
Track Severe Weather on mobile